Terminal Aerodrome Forecast
Issued by NWS Atlanta, GA

Home | Current Version | Previous Version | Text Only | Print | Product List | Glossary On
Versions: 1 2 3 4 5 6 7 8 9 10 11 12
000
FTUS42 KFFC 202320
TAFCSG
TAF
KCSG 202320Z 2100/2124 09005KT P6SM SKC
     FM210100 00000KT P6SM SKC
     FM211500 11007KT P6SM FEW040=

USA.gov is the U.S. government's official web portal to all federal, state and local government web resources and services.